Bangkok, Thailand

3:14 PM ICT on September 20, 2014 (GMT +0700)
APRSWXNET Bangkok TH | Change Station
CLOSE
Current Station
Personal Weather Station
Location: Bangkok,
Elevation: 9 ft
Nearby Weather Stations

Elev 9 ft 13.75 °N, 100.70 °E | Updated 1080 days ago

Partly Cloudy
Partly Cloudy
95 °F
Feels Like 102 °F
N
6
Wind Variable Wind from SSW
Gusts mph

Today
High -- | Low -- °F
--% Chance of Precip.
Yesterday
High -- | Low -- °F
Precip. -- in
6:06 AM 6:15 PM
Waning Crescent, 14% visible
Pressure 29.71 in
Visibility 6.2 miles
Clouds Few 2000 ft
Mostly Cloudy 30000 ft
Heat Index 102 °F
Dew Point 72 °F
Humidity 46%
Rainfall 3.66 in
Snow Depth Not available.
UV 5 out of 12
Pollen Not available.
Air Quality Not available.
Flu Activity Not available.
METAR VTBD 200800Z 26007KT 200V310 9999 FEW020 BKN300 34/23 Q1006 NOSIG

More Conditions Fewer Conditions

Pressure 29.71 in
Visibility 6.2 miles
Clouds Few 2000 ft
Mostly Cloudy 30000 ft
Heat Index 102 °F
Dew Point 72 °F
Humidity 46%
Rainfall 3.66 in
Snow Depth Not available.
UV 5 out of 12
Pollen Not available.
Air Quality Not available.
Flu Activity Not available.
METAR VTBD 200800Z 26007KT 200V310 9999 FEW020 BKN300 34/23 Q1006 NOSIG

More Conditions Fewer Conditions

10-Day Weather Forecast

Almanac

Astronomy

Sep. 20, 2014 Rise Set
Actual Time 6:06 AM ICT 6:15 PM ICT
Civil Twilight 5:44 AM ICT 6:36 PM ICT
Nautical Twilight 5:20 AM ICT 7:01 PM ICT
Astronomical Twilight 4:55 AM ICT 7:25 PM ICT
Moon 2:46 AM ICT 3:34 PM ICT
Length of Visible Light 12h 51m
Length of Day
12h 08m
Tomorrow will be 0m 46s shorter.
Waning Crescent, 14% of the Moon is Illuminated
Today
Waning Crescent
Sep 24
New
Oct 1
First Quarter
Oct 8
Full
Oct 15
Last Quarter

Yesterday's Extremes

Country Highs Country Lows

Community

WunderPhotos

Upload Photos

1,754,793 photos uploaded!

WunderBlogs® & News

Nearby

Snow Depth

Not available.

Earthquake Activity

City Distance Mag. Time & Date
No recent earthquake activity has been reported nearby.
Minimum magnitude displayed is 2.5.

Coastal Water Temperatures

Place Temperature
No Stations Reporting

Nearby Weather Stations